Time;durP1;ratioP1;P1;durP2;ratioP2;P2;SDS_P1;SDS_P2;PMS_P1;PMS_P2;Temp;Humidity;BMP_temperature;BMP_pressure;BME280_temperature;BME280_humidity;BME280_pressure;Samples;Min_cycle;Max_cycle;Signal;HPM_P1;HPM_P2
2022/06/03 05:04:06;;;;;;;8.45;6.53;;;15.90;94.80;;;;;;6154780;23;20044;-76
2022/06/03 05:07:15;;;;;;;12.25;7.15;;;16.10;95.20;;;;;;6143743;23;20002;-75
2022/06/03 05:10:19;;;;;;;10.20;6.63;;;16.20;95.10;;;;;;6140549;23;20005;-75
2022/06/03 05:13:26;;;;;;;12.68;7.20;;;16.30;94.90;;;;;;6147367;23;20006;-75
2022/06/03 05:16:14;;;;;;;10.68;6.07;;;16.40;94.60;;;;;;6173850;23;20015;-76
2022/06/03 05:18:55;;;;;;;9.23;6.45;;;16.60;94.20;;;;;;6173345;23;20007;-76
2022/06/03 05:21:45;;;;;;;7.65;5.60;;;16.70;94.00;;;;;;6172304;23;20049;-77
2022/06/03 05:24:22;;;;;;;8.30;5.55;;;16.80;93.80;;;;;;6168800;23;20190;-76
2022/06/03 05:27:09;;;;;;;11.00;6.73;;;16.90;93.20;;;;;;6173404;23;20002;-76
2022/06/03 05:29:46;;;;;;;9.73;5.93;;;17.10;93.30;;;;;;6169256;23;20001;-77
2022/06/03 05:32:29;;;;;;;8.98;5.97;;;17.20;92.60;;;;;;6171020;23;20017;-76
2022/06/03 05:35:01;;;;;;;11.23;6.57;;;17.20;92.90;;;;;;6150886;23;20001;-76
2022/06/03 05:38:09;;;;;;;9.32;5.50;;;17.30;92.60;;;;;;6149352;23;20001;-78
2022/06/03 05:40:48;;;;;;;8.23;5.10;;;17.50;92.30;;;;;;6165081;23;19997;-77
2022/06/03 05:43:36;;;;;;;7.35;5.30;;;17.60;91.80;;;;;;6165772;23;20275;-78
2022/06/03 05:46:35;;;;;;;9.07;5.43;;;17.70;91.60;;;;;;6137978;23;20318;-77
2022/06/03 05:49:18;;;;;;;9.85;4.90;;;17.80;91.30;;;;;;6163765;23;20168;-78
2022/06/03 05:51:58;;;;;;;8.30;5.03;;;18.00;91.10;;;;;;6164155;23;20077;-79
2022/06/03 05:54:39;;;;;;;11.13;6.43;;;18.00;91.10;;;;;;6163416;23;20319;-78
2022/06/03 05:57:20;;;;;;;12.65;6.70;;;18.00;91.10;;;;;;6166317;23;20004;-79
2022/06/03 06:00:17;;;;;;;13.90;7.30;;;18.10;90.80;;;;;;6139793;23;20005;-79
2022/06/03 06:02:58;;;;;;;11.10;6.88;;;18.10;90.90;;;;;;6164528;23;20022;-78
2022/06/03 06:05:47;;;;;;;14.75;6.40;;;18.10;90.80;;;;;;6165436;23;20064;-79
2022/06/03 06:08:38;;;;;;;10.73;5.90;;;18.20;90.80;;;;;;6166081;23;20008;-78
2022/06/03 06:11:18;;;;;;;16.65;6.78;;;18.30;90.80;;;;;;6140055;23;20177;-78
2022/06/03 06:14:14;;;;;;;10.63;6.70;;;18.40;90.70;;;;;;6139124;23;20199;-79
2022/06/03 06:16:42;;;;;;;9.15;5.93;;;18.60;90.60;;;;;;6163892;23;20014;-78
2022/06/03 06:19:36;;;;;;;10.80;5.50;;;18.80;90.10;;;;;;6165529;23;20057;-78
2022/06/03 06:22:16;;;;;;;8.00;5.45;;;18.90;89.80;;;;;;6165281;23;20302;-77
2022/06/03 06:25:10;;;;;;;7.43;5.90;;;19.00;89.50;;;;;;6165515;23;20005;-77
2022/06/03 06:28:01;;;;;;;7.88;5.30;;;19.10;89.30;;;;;;6163723;23;20009;-78
2022/06/03 06:30:45;;;;;;;7.53;5.50;;;19.10;89.00;;;;;;6113237;23;20030;-79
2022/06/03 06:33:50;;;;;;;9.00;5.20;;;19.20;89.00;;;;;;6164458;23;20009;-79
2022/06/03 06:36:32;;;;;;;6.28;4.57;;;19.30;88.80;;;;;;6165050;23;20011;-79
2022/06/03 06:39:25;;;;;;;10.77;5.80;;;19.60;88.30;;;;;;6167410;23;20006;-78
2022/06/03 06:42:13;;;;;;;7.45;4.35;;;19.90;87.20;;;;;;6170440;23;20032;-78
2022/06/03 06:45:09;;;;;;;7.67;4.90;;;20.20;86.30;;;;;;6164336;23;20016;-79
2022/06/03 06:47:54;;;;;;;6.55;4.25;;;20.40;85.70;;;;;;6163970;23;20788;-80
2022/06/03 06:50:26;;;;;;;7.35;4.40;;;20.60;84.90;;;;;;6164379;23;20008;-79
2022/06/03 06:53:01;;;;;;;8.95;4.35;;;20.70;84.80;;;;;;6164073;23;20202;-77
2022/06/03 06:55:33;;;;;;;7.03;4.40;;;20.90;84.20;;;;;;6113096;23;20306;-78
2022/06/03 06:58:06;;;;;;;7.85;4.55;;;20.90;84.00;;;;;;6137795;23;20052;-77
2022/06/03 07:00:46;;;;;;;5.20;3.60;;;20.90;84.40;;;;;;6162318;23;20010;-77
2022/06/03 07:03:48;;;;;;;7.07;4.53;;;21.10;83.70;;;;;;6137044;23;20333;-78
2022/06/03 07:06:39;;;;;;;10.80;4.20;;;21.30;83.60;;;;;;6114659;23;20009;-79
2022/06/03 07:09:10;;;;;;;8.77;4.18;;;21.50;83.30;;;;;;6163584;23;20020;-78
2022/06/03 07:11:55;;;;;;;10.32;5.38;;;21.70;82.80;;;;;;6163224;23;20018;-79
2022/06/03 07:14:32;;;;;;;5.75;3.88;;;21.70;81.90;;;;;;6163893;23;20045;-79
2022/06/03 07:20:34;;;;;;;9.52;4.18;;;22.00;81.40;;;;;;6163312;23;20001;-78
2022/06/03 07:23:06;;;;;;;7.13;4.38;;;22.20;81.00;;;;;;6163647;23;20452;-77
2022/06/03 07:54:14;;;;;;;5.75;3.72;;;24.40;74.30;;;;;;6175224;23;19920;-77
2022/06/03 07:56:40;;;;;;;8.60;3.40;;;24.60;74.20;;;;;;6193265;23;20005;-77
2022/06/03 08:02:37;;;;;;;5.15;3.20;;;24.70;73.50;;;;;;6071744;23;20083;-78
2022/06/03 08:05:23;;;;;;;7.68;3.10;;;24.60;73.60;;;;;;6072894;23;20289;-77
2022/06/03 08:11:27;;;;;;;7.70;3.03;;;24.60;73.80;;;;;;6073314;23;20327;-78
2022/06/03 08:13:56;;;;;;;4.15;2.33;;;24.50;73.90;;;;;;6071837;23;20308;-77
2022/06/03 08:16:40;;;;;;;6.32;3.10;;;24.50;73.20;;;;;;6072411;23;20018;-76
2022/06/03 08:19:14;;;;;;;5.03;2.78;;;24.60;74.60;;;;;;6072981;23;20311;-77
2022/06/03 08:21:52;;;;;;;7.18;3.28;;;24.60;74.20;;;;;;6072743;23;20015;-77
2022/06/03 08:24:34;;;;;;;4.63;2.97;;;24.60;73.60;;;;;;6072305;23;20471;-77
2022/06/03 08:27:05;;;;;;;5.05;3.15;;;24.70;74.30;;;;;;6049229;23;20252;-75
2022/06/03 08:29:51;;;;;;;5.80;3.00;;;24.80;74.00;;;;;;6073110;23;20083;-76
2022/06/03 08:32:45;;;;;;;5.60;2.90;;;24.70;74.30;;;;;;6047617;23;20014;-79
2022/06/03 08:35:26;;;;;;;5.03;2.92;;;24.90;74.30;;;;;;6072598;23;20010;-77
2022/06/03 08:56:42;;;;;;;7.03;2.72;;;25.60;72.70;;;;;;6102841;23;20010;-77
2022/06/03 08:59:15;;;;;;;6.70;2.83;;;26.00;72.00;;;;;;6103623;23;20007;-76
2022/06/03 09:01:51;;;;;;;5.65;2.92;;;26.10;71.70;;;;;;6102631;23;20018;-77
2022/06/03 09:04:26;;;;;;;4.13;2.40;;;26.20;71.30;;;;;;6104014;23;20203;-76
2022/06/03 09:10:57;;;;;;;6.43;2.58;;;26.10;71.30;;;;;;6029291;23;20013;-77
2022/06/03 09:13:24;;;;;;;4.80;3.17;;;26.30;71.70;;;;;;6104231;23;20208;-77
2022/06/03 09:15:51;;;;;;;6.72;2.88;;;26.40;72.10;;;;;;6102522;23;20022;-76
2022/06/03 09:18:44;;;;;;;5.55;3.08;;;26.60;72.00;;;;;;6103915;23;20284;-77
2022/06/03 09:21:14;;;;;;;3.90;2.47;;;26.60;71.50;;;;;;6063193;23;20243;-77
2022/06/03 09:23:43;;;;;;;6.20;3.22;;;26.60;72.20;;;;;;6078216;23;20041;-77
2022/06/03 09:26:26;;;;;;;6.43;3.05;;;26.70;71.70;;;;;;6078062;23;20084;-77
2022/06/03 09:28:55;;;;;;;8.18;2.90;;;26.70;71.50;;;;;;6103798;23;20196;-77
2022/06/03 09:31:25;;;;;;;5.28;2.97;;;26.90;71.60;;;;;;6104409;23;20019;-76
2022/06/03 09:33:54;;;;;;;5.20;2.70;;;27.20;71.70;;;;;;6055749;23;20324;-77
2022/06/03 09:36:20;;;;;;;4.75;2.60;;;27.50;71.40;;;;;;6080545;23;20045;-76
2022/06/03 09:39:09;;;;;;;4.88;2.70;;;27.40;70.10;;;;;;6105377;23;20005;-77
2022/06/03 09:41:42;;;;;;;11.73;2.88;;;27.40;70.50;;;;;;6104104;23;20024;-76
2022/06/03 09:44:11;;;;;;;6.28;2.80;;;27.50;71.00;;;;;;6105634;23;20010;-77
2022/06/03 09:46:39;;;;;;;13.73;3.20;;;27.50;70.90;;;;;;6102905;23;20037;-78
2022/06/03 09:49:06;;;;;;;6.78;2.45;;;27.70;70.60;;;;;;6084670;23;20013;-77
2022/06/03 09:51:57;;;;;;;5.38;2.33;;;27.90;70.50;;;;;;6134709;23;20013;-78
2022/06/03 09:54:31;;;;;;;6.03;2.50;;;28.00;70.00;;;;;;6090908;23;20016;-78
2022/06/03 09:57:04;;;;;;;8.55;2.75;;;28.00;69.80;;;;;;6163609;23;20001;-76
2022/06/03 09:59:31;;;;;;;7.20;3.00;;;28.20;69.80;;;;;;6164547;23;20231;-76
2022/06/03 10:01:57;;;;;;;6.72;3.20;;;28.30;68.80;;;;;;6162722;23;20013;-77
2022/06/03 10:04:24;;;;;;;5.47;2.67;;;28.40;68.20;;;;;;6138101;23;20076;-77
2022/06/03 10:06:50;;;;;;;5.43;2.70;;;28.70;67.50;;;;;;6163578;23;20009;-76
2022/06/03 10:17:46;;;;;;;3.90;2.38;;;29.70;65.20;;;;;;6136875;23;20036;-77
2022/06/03 10:20:41;;;;;;;3.40;1.90;;;30.00;64.90;;;;;;6138808;23;20177;-78
2022/06/03 10:23:08;;;;;;;4.25;2.13;;;30.30;64.00;;;;;;6138051;23;20108;-78
2022/06/03 10:26:16;;;;;;;6.07;2.10;;;30.50;63.30;;;;;;6163884;23;20036;-78
2022/06/03 10:28:51;;;;;;;3.55;2.45;;;30.40;63.50;;;;;;6163034;23;20005;-78
2022/06/03 10:32:16;;;;;;;3.97;1.95;;;30.50;63.50;;;;;;6161595;23;20070;-77
2022/06/03 10:34:42;;;;;;;3.97;2.20;;;30.80;62.10;;;;;;6144527;23;20017;-75
2022/06/03 10:37:28;;;;;;;3.25;2.20;;;31.00;62.00;;;;;;6163893;23;20289;-76
2022/06/03 10:39:56;;;;;;;3.38;1.80;;;31.40;60.60;;;;;;6156234;23;20340;-76
2022/06/03 10:42:36;;;;;;;;;;;;;;;;;;;;;
2022/06/03 10:45:08;;;;;;;3.95;2.00;;;31.70;60.30;;;;;;6162775;23;20013;-77
2022/06/03 10:47:48;;;;;;;2.80;1.92;;;32.10;60.20;;;;;;6163944;23;19989;-76
2022/06/03 10:50:25;;;;;;;3.55;2.10;;;32.50;59.70;;;;;;6163599;23;20310;-76
2022/06/03 11:02:37;;;;;;;3.78;1.83;;;33.30;57.70;;;;;;6162528;23;20013;-78
2022/06/03 11:05:14;;;;;;;2.63;1.90;;;33.40;57.80;;;;;;6137081;23;20228;-76
2022/06/03 11:07:40;;;;;;;4.30;1.97;;;33.50;56.60;;;;;;6113179;23;20012;-76
2022/06/03 11:10:10;;;;;;;7.80;1.95;;;33.40;57.40;;;;;;6163246;23;20001;-78
2022/06/03 11:12:36;;;;;;;5.38;2.15;;;32.90;57.90;;;;;;6114851;23;20013;-76
2022/06/03 11:15:21;;;;;;;2.97;1.88;;;32.40;58.00;;;;;;6163651;23;20438;-77
2022/06/03 11:17:47;;;;;;;3.38;1.80;;;31.90;58.50;;;;;;6166293;23;20010;-77
2022/06/03 11:20:36;;;;;;;3.28;1.90;;;31.30;59.20;;;;;;6137418;23;20073;-76
2022/06/03 11:23:04;;;;;;;4.75;2.10;;;30.70;60.30;;;;;;6162845;23;20056;-77
2022/06/03 11:25:31;;;;;;;3.25;1.80;;;30.10;61.20;;;;;;6163716;23;20072;-76
2022/06/03 11:28:00;;;;;;;4.13;2.37;;;29.80;61.90;;;;;;6163284;23;20002;-76
2022/06/03 11:30:39;;;;;;;4.20;1.90;;;29.60;62.50;;;;;;6162585;23;20235;-77
2022/06/03 11:33:15;;;;;;;4.57;2.08;;;29.50;62.80;;;;;;6161682;23;20014;-77
2022/06/03 11:35:47;;;;;;;3.75;1.85;;;29.20;63.00;;;;;;6137131;23;20012;-76
2022/06/03 11:38:19;;;;;;;3.35;2.28;;;29.00;63.50;;;;;;6163669;23;20006;-76
2022/06/03 11:40:52;;;;;;;4.55;2.20;;;28.90;63.60;;;;;;6136447;23;20005;-75
2022/06/03 11:43:33;;;;;;;6.10;2.42;;;28.80;64.40;;;;;;6137005;23;20306;-77
2022/06/03 11:46:08;;;;;;;3.72;1.90;;;28.70;64.90;;;;;;6135413;23;20348;-77
2022/06/03 11:48:37;;;;;;;6.43;2.28;;;28.70;65.40;;;;;;6162835;23;20005;-78
2022/06/03 11:51:37;;;;;;;3.20;1.88;;;28.70;65.70;;;;;;6162341;23;20002;-78
2022/06/03 11:54:11;;;;;;;6.78;2.38;;;28.80;66.60;;;;;;6111577;23;20033;-77
2022/06/03 11:56:37;;;;;;;3.05;2.08;;;28.80;67.30;;;;;;6163445;23;20016;-78
2022/06/03 11:59:12;;;;;;;5.05;2.20;;;28.70;67.70;;;;;;6162557;23;20001;-77
2022/06/03 12:01:59;;;;;;;4.43;2.92;;;28.70;67.70;;;;;;6162163;23;20014;-78
2022/06/03 12:04:48;;;;;;;5.93;2.22;;;28.80;68.20;;;;;;6163523;23;20009;-78
2022/06/03 12:07:32;;;;;;;6.00;2.42;;;28.90;67.60;;;;;;6136920;23;20243;-78
2022/06/03 12:10:10;;;;;;;6.13;1.95;;;29.10;67.40;;;;;;6162601;23;20044;-79
2022/06/03 12:15:33;;;;;;;5.45;2.33;;;29.70;66.90;;;;;;6162129;23;20014;-79
2022/06/03 12:18:16;;;;;;;3.38;2.20;;;30.20;66.00;;;;;;6162536;23;20495;-77
2022/06/03 12:20:48;;;;;;;6.47;2.20;;;30.40;65.30;;;;;;6163046;23;20295;-77
2022/06/03 12:23:14;;;;;;;5.55;2.38;;;30.50;65.10;;;;;;6163033;23;20002;-76
2022/06/03 12:25:48;;;;;;;3.50;1.92;;;30.90;64.20;;;;;;6162966;23;20020;-77
2022/06/03 12:28:32;;;;;;;5.03;2.17;;;31.20;64.20;;;;;;6162743;23;20057;-77
2022/06/03 12:31:25;;;;;;;5.63;2.22;;;31.20;63.60;;;;;;6161673;23;20017;-77
2022/06/03 12:34:09;;;;;;;5.30;2.45;;;31.00;64.00;;;;;;6120903;23;20256;-77
2022/06/03 12:36:47;;;;;;;4.28;2.20;;;30.80;64.60;;;;;;6163384;23;20002;-76
2022/06/03 12:39:25;;;;;;;4.10;2.47;;;30.80;64.60;;;;;;6163045;23;20001;-76
2022/06/03 12:41:51;;;;;;;;;;;30.50;64.90;;;;;;6163138;23;20041;-76
2022/06/03 12:44:23;;;;;;;5.43;2.60;;;30.50;65.30;;;;;;6162571;23;19908;-77
2022/06/03 12:46:49;;;;;;;4.60;2.40;;;30.40;65.00;;;;;;6135544;23;20018;-77
2022/06/03 12:49:36;;;;;;;7.50;2.28;;;30.30;65.40;;;;;;6162911;23;20013;-77
2022/06/03 12:52:08;;;;;;;5.30;2.10;;;30.20;65.40;;;;;;6138032;23;20009;-79
2022/06/03 12:54:43;;;;;;;3.53;2.33;;;30.00;65.80;;;;;;6162426;23;20073;-78
2022/06/03 12:57:15;;;;;;;4.30;2.33;;;29.90;66.30;;;;;;6162840;23;20223;-78
2022/06/03 12:59:49;;;;;;;5.28;2.08;;;29.60;66.60;;;;;;6163036;23;20021;-83
2022/06/03 13:02:52;;;;;;;5.25;2.30;;;29.30;67.50;;;;;;6162292;23;20037;-83
2022/06/03 13:05:59;;;;;;;4.95;2.88;;;29.00;68.40;;;;;;6136600;23;20070;-79
2022/06/03 13:11:30;;;;;;;4.30;2.38;;;28.60;69.30;;;;;;6162820;23;20056;-79
2022/06/03 13:13:56;;;;;;;5.63;2.72;;;28.40;70.00;;;;;;6136131;23;20005;-78
2022/06/03 13:17:13;;;;;;;5.35;2.20;;;28.40;72.10;;;;;;6162307;23;20077;-79
2022/06/03 13:19:23;;;;;;;4.88;2.60;;;28.80;70.90;;;;;;6147094;23;20005;-79
2022/06/03 13:22:09;;;;;;;4.90;2.22;;;29.20;70.30;;;;;;6162964;23;20009;-78
2022/06/03 13:24:37;;;;;;;3.80;2.38;;;29.40;69.40;;;;;;6162779;23;20020;-79
2022/06/03 13:27:06;;;;;;;;;;;29.30;68.60;;;;;;6137054;23;19989;-80
2022/06/03 13:29:55;;;;;;;5.20;2.58;;;29.00;69.10;;;;;;6162849;23;20143;-80
2022/06/03 13:32:36;;;;;;;4.00;2.55;;;28.60;69.90;;;;;;6162267;23;20124;-80
2022/06/03 13:35:27;;;;;;;4.28;2.60;;;28.30;71.00;;;;;;6136155;23;20029;-77
2022/06/03 13:38:24;;;;;;;5.63;2.75;;;28.00;73.00;;;;;;6161957;23;20057;-78
2022/06/03 13:44:05;;;;;;;5.07;2.60;;;27.50;74.20;;;;;;6107014;23;20028;-79
2022/06/03 13:46:32;;;;;;;5.63;2.65;;;27.30;74.20;;;;;;6162212;23;20295;-79
2022/06/03 13:49:08;;;;;;;4.88;2.60;;;27.40;74.00;;;;;;6162044;23;20001;-79
2022/06/03 13:51:47;;;;;;;6.85;2.65;;;27.70;74.20;;;;;;6162815;23;20009;-79
2022/06/03 13:54:36;;;;;;;5.00;2.63;;;28.00;73.00;;;;;;6162534;23;20010;-79
2022/06/03 13:57:20;;;;;;;4.22;2.95;;;28.20;74.40;;;;;;6162241;23;20076;-79
2022/06/03 13:59:47;;;;;;;5.95;2.75;;;28.10;73.00;;;;;;6162831;23;20175;-80
2022/06/03 14:02:33;;;;;;;6.88;2.80;;;27.90;73.00;;;;;;6160972;23;20017;-78
2022/06/03 14:05:04;;;;;;;3.08;2.35;;;27.60;72.60;;;;;;6161599;23;20006;-79
2022/06/03 14:07:45;;;;;;;6.20;2.92;;;27.50;73.50;;;;;;6162286;23;20355;-80
2022/06/03 14:10:20;;;;;;;3.85;2.70;;;27.50;74.10;;;;;;6136302;23;20048;-78
2022/06/03 14:13:14;;;;;;;5.20;2.53;;;27.40;74.30;;;;;;6162609;23;20001;-79
2022/06/03 14:16:03;;;;;;;4.95;2.97;;;27.30;74.80;;;;;;6161597;23;20080;-79
2022/06/03 14:18:50;;;;;;;6.47;2.85;;;27.30;74.90;;;;;;6137572;23;20350;-79
2022/06/03 14:21:32;;;;;;;5.00;2.80;;;27.10;74.30;;;;;;6163468;23;20005;-79
2022/06/03 14:24:04;;;;;;;3.85;2.50;;;26.90;74.50;;;;;;6163725;23;20006;-78
2022/06/03 14:27:21;;;;;;;4.82;3.10;;;26.70;74.90;;;;;;6113625;23;20009;-78
2022/06/03 14:30:15;;;;;;;7.80;3.35;;;26.60;74.50;;;;;;6021684;23;20007;-78
2022/06/03 14:32:48;;;;;;;3.45;2.38;;;26.50;75.40;;;;;;6137685;23;20021;-78
2022/06/03 14:35:41;;;;;;;4.57;2.65;;;26.40;75.00;;;;;;6137041;23;20016;-79
2022/06/03 14:38:21;;;;;;;6.45;2.80;;;26.40;74.90;;;;;;6163708;23;20115;-79
2022/06/03 14:40:49;;;;;;;5.00;2.63;;;26.50;74.40;;;;;;6138296;23;20005;-79
2022/06/03 14:43:19;;;;;;;5.53;2.87;;;26.50;74.10;;;;;;6163492;23;20308;-76
2022/06/03 14:46:13;;;;;;;4.43;2.58;;;26.60;74.10;;;;;;6137668;23;20025;-76
2022/06/03 14:48:50;;;;;;;3.72;2.08;;;27.00;73.30;;;;;;6163216;23;20052;-76
2022/06/03 14:51:35;;;;;;;5.68;2.50;;;27.90;71.80;;;;;;6163494;23;20013;-76
2022/06/03 14:54:07;;;;;;;4.85;2.70;;;29.50;68.70;;;;;;6163335;23;20035;-77
2022/06/03 14:56:44;;;;;;;3.70;2.33;;;30.40;65.70;;;;;;6164183;23;20033;-77
2022/06/03 14:59:37;;;;;;;5.25;2.35;;;30.80;65.30;;;;;;6163732;23;20008;-76
2022/06/03 15:02:12;;;;;;;4.07;2.55;;;31.50;64.60;;;;;;6162622;23;20076;-76
2022/06/03 15:04:57;;;;;;;4.78;2.30;;;31.50;63.50;;;;;;6163962;23;20042;-76
2022/06/03 15:07:35;;;;;;;6.15;2.50;;;31.80;63.30;;;;;;6164389;23;19997;-76
2022/06/03 15:10:06;;;;;;;2.83;2.20;;;31.70;63.10;;;;;;6137790;23;20014;-75
2022/06/03 15:12:34;;;;;;;3.50;1.95;;;31.20;64.20;;;;;;6163750;23;19997;-77
2022/06/03 15:15:00;;;;;;;4.35;2.13;;;31.00;64.40;;;;;;6163291;23;20057;-75
2022/06/03 15:17:30;;;;;;;3.13;2.38;;;30.60;65.20;;;;;;6137575;23;20013;-75
2022/06/03 15:20:04;;;;;;;4.22;2.25;;;30.70;64.70;;;;;;6164386;23;20005;-76
2022/06/03 15:22:36;;;;;;;4.43;2.35;;;30.80;64.70;;;;;;6165142;23;20002;-75
2022/06/03 15:25:47;;;;;;;5.03;2.38;;;30.80;63.40;;;;;;6163082;23;20009;-77
2022/06/03 15:28:15;;;;;;;4.28;2.13;;;30.30;65.30;;;;;;6035160;23;20213;-78
2022/06/03 15:30:59;;;;;;;3.28;2.50;;;30.00;65.80;;;;;;6044305;23;20003;-76
2022/06/03 15:33:44;;;;;;;4.78;2.30;;;29.70;66.70;;;;;;6020771;23;20359;-78
2022/06/03 15:36:17;;;;;;;4.07;2.45;;;29.60;67.50;;;;;;6020268;23;20030;-76
2022/06/03 15:39:21;;;;;;;5.65;2.90;;;29.30;67.80;;;;;;6044580;23;20099;-80
2022/06/03 15:41:49;;;;;;;4.28;2.33;;;29.00;68.80;;;;;;6045011;23;20015;-77
2022/06/03 15:44:38;;;;;;;5.32;3.00;;;28.90;69.30;;;;;;6044044;23;20006;-78
2022/06/03 15:47:22;;;;;;;4.93;2.70;;;28.80;70.00;;;;;;6043462;23;20019;-77
2022/06/03 15:50:11;;;;;;;10.82;2.90;;;29.10;69.80;;;;;;6045106;23;20007;-76
2022/06/03 15:52:51;;;;;;;5.03;2.83;;;29.60;68.60;;;;;;6020821;23;20011;-77
2022/06/03 15:55:30;;;;;;;4.45;2.85;;;29.80;67.60;;;;;;6021393;23;20341;-77
2022/06/03 15:58:16;;;;;;;4.93;2.70;;;29.90;67.40;;;;;;6034957;23;20007;-77
2022/06/03 16:00:45;;;;;;;5.10;3.22;;;30.70;65.70;;;;;;6160518;23;20009;-75
2022/06/03 16:03:32;;;;;;;4.13;2.78;;;30.90;64.90;;;;;;6168757;23;20051;-78
2022/06/03 16:06:17;;;;;;;4.32;3.10;;;31.00;64.70;;;;;;6163618;23;20014;-76
2022/06/03 16:08:52;;;;;;;5.90;2.83;;;30.90;65.10;;;;;;6163669;23;20041;-76
2022/06/03 16:11:26;;;;;;;3.35;2.88;;;30.60;65.80;;;;;;6136774;23;20048;-77
2022/06/03 16:14:16;;;;;;;5.00;2.83;;;30.30;66.10;;;;;;6163243;23;20008;-77
2022/06/03 16:17:12;;;;;;;5.43;3.10;;;30.50;66.70;;;;;;6136467;23;20069;-78
2022/06/03 16:19:41;;;;;;;5.25;3.05;;;30.80;66.50;;;;;;6163476;23;20025;-77
2022/06/03 16:22:41;;;;;;;6.43;3.40;;;31.30;65.90;;;;;;6162550;23;20004;-78
2022/06/03 16:25:25;;;;;;;6.03;2.92;;;32.40;64.30;;;;;;6162795;23;20050;-77
2022/06/03 16:28:03;;;;;;;6.78;3.78;;;34.90;61.00;;;;;;6163177;23;20004;-78
2022/06/03 16:30:50;;;;;;;6.28;2.83;;;36.20;58.80;;;;;;6136989;23;20342;-78
2022/06/03 16:33:37;;;;;;;4.63;3.22;;;36.50;57.60;;;;;;6136769;23;20009;-79
2022/06/03 16:36:15;;;;;;;6.77;3.20;;;35.20;58.90;;;;;;6162508;23;20009;-78
2022/06/03 16:38:47;;;;;;;;;;;33.60;61.00;;;;;;6164186;23;20061;-77
2022/06/03 16:41:30;;;;;;;3.72;2.92;;;32.30;63.40;;;;;;6162689;23;20101;-79
2022/06/03 16:44:18;;;;;;;5.43;2.78;;;31.30;65.60;;;;;;6112601;23;20012;-78
2022/06/03 16:46:59;;;;;;;4.97;2.97;;;30.50;66.90;;;;;;6162433;23;20025;-77
2022/06/03 16:49:39;;;;;;;4.43;2.90;;;29.80;68.40;;;;;;6136438;23;20065;-78
2022/06/03 16:52:10;;;;;;;5.47;3.67;;;29.50;69.50;;;;;;6162314;23;20024;-78
2022/06/03 16:55:01;;;;;;;7.22;3.33;;;29.30;70.00;;;;;;6136778;23;20002;-79
2022/06/03 16:57:30;;;;;;;6.22;3.67;;;29.00;69.80;;;;;;6161641;23;20061;-81
2022/06/03 17:00:19;;;;;;;5.30;3.65;;;28.60;71.50;;;;;;6112746;23;20225;-78
2022/06/03 17:03:04;;;;;;;4.75;3.30;;;28.20;72.00;;;;;;6162806;23;20021;-81
2022/06/03 17:05:43;;;;;;;5.95;3.53;;;28.00;72.40;;;;;;6164208;23;20009;-79
2022/06/03 17:08:09;;;;;;;5.43;3.78;;;27.70;73.10;;;;;;6113368;23;20373;-78
2022/06/03 17:10:34;;;;;;;6.80;3.45;;;27.20;74.00;;;;;;6164107;23;19993;-79
2022/06/03 17:13:05;;;;;;;6.85;3.97;;;26.90;74.80;;;;;;6163201;23;20001;-77
2022/06/03 17:15:32;;;;;;;6.53;4.25;;;26.70;75.10;;;;;;6162713;23;20014;-78
2022/06/03 17:18:00;;;;;;;4.70;3.93;;;26.50;75.60;;;;;;6163976;23;20045;-77
2022/06/03 17:20:25;;;;;;;9.20;4.53;;;26.50;75.90;;;;;;6161993;23;20628;-78
2022/06/03 17:23:02;;;;;;;5.28;3.80;;;26.30;76.90;;;;;;6162669;23;20001;-77
2022/06/03 17:25:47;;;;;;;6.00;3.80;;;26.20;76.60;;;;;;6162558;23;20242;-78
2022/06/03 17:28:25;;;;;;;5.32;3.67;;;26.10;76.50;;;;;;6136603;23;20006;-78
2022/06/03 17:31:22;;;;;;;6.22;4.10;;;26.00;76.70;;;;;;6162286;23;20013;-78
2022/06/03 17:34:04;;;;;;;10.25;4.32;;;26.00;81.40;;;;;;6150812;23;20330;-79
2022/06/03 17:37:02;;;;;;;10.07;4.78;;;25.70;83.00;;;;;;6112673;23;20112;-80
2022/06/03 17:39:43;;;;;;;7.77;4.97;;;25.40;85.20;;;;;;6163530;23;20028;-78
2022/06/03 17:42:22;;;;;;;9.80;4.85;;;25.30;84.30;;;;;;6163494;23;20393;-88
2022/06/03 17:45:02;;;;;;;10.55;5.75;;;25.00;87.70;;;;;;6137419;23;20066;-78
2022/06/03 17:47:49;;;;;;;12.10;7.15;;;24.40;91.40;;;;;;6162983;23;20006;-77
2022/06/03 17:50:25;;;;;;;10.00;7.35;;;23.20;94.20;;;;;;6163194;23;20239;-79
2022/06/03 17:56:18;;;;;;;12.40;9.63;;;21.60;99.90;;;;;;6165696;23;20121;-78
2022/06/03 17:59:14;;;;;;;12.73;9.35;;;21.20;99.90;;;;;;6165969;23;20025;-78
2022/06/03 18:01:56;;;;;;;11.40;8.93;;;20.90;99.90;;;;;;6165079;23;20021;-80
2022/06/03 18:04:34;;;;;;;15.90;9.50;;;20.90;99.90;;;;;;6114519;23;20036;-80
2022/06/03 18:07:24;;;;;;;22.38;16.58;;;20.80;99.90;;;;;;6165458;23;20061;-78
2022/06/03 18:10:05;;;;;;;13.20;10.80;;;20.80;99.90;;;;;;6139771;23;20012;-78
2022/06/03 18:12:33;;;;;;;17.50;12.30;;;20.90;99.90;;;;;;6164989;23;20049;-77
2022/06/03 18:15:05;;;;;;;;;;;21.00;99.90;;;;;;6166417;23;20131;-78
2022/06/03 18:17:36;;;;;;;18.00;13.27;;;21.10;99.90;;;;;;6162021;23;19904;-78
2022/06/03 18:20:08;;;;;;;12.70;10.77;;;21.20;99.90;;;;;;6165356;23;20025;-78
2022/06/03 18:23:11;;;;;;;13.63;11.25;;;21.30;99.90;;;;;;6165741;23;20033;-78
2022/06/03 18:25:55;;;;;;;17.20;12.70;;;21.30;99.90;;;;;;6165711;23;20295;-78
2022/06/03 18:28:39;;;;;;;12.07;10.55;;;21.40;99.90;;;;;;6164945;23;20231;-78
2022/06/03 18:31:40;;;;;;;12.85;10.55;;;21.40;99.90;;;;;;6138706;23;20013;-78
2022/06/03 18:35:08;;;;;;;11.68;10.00;;;21.30;99.90;;;;;;6139298;23;20177;-78
2022/06/03 18:38:10;;;;;;;11.50;9.52;;;21.40;99.90;;;;;;6022713;23;20304;-78
2022/06/03 18:40:59;;;;;;;10.80;8.85;;;21.30;99.90;;;;;;6046775;23;20401;-77
2022/06/03 18:43:46;;;;;;;16.50;14.27;;;21.30;99.90;;;;;;6046395;23;20003;-78
2022/06/03 18:46:21;;;;;;;21.77;17.17;;;21.30;99.90;;;;;;6045022;23;20035;-77
2022/06/03 18:48:54;;;;;;;21.40;16.77;;;21.40;99.90;;;;;;6046588;23;20034;-79
2022/06/03 18:51:36;;;;;;;15.73;12.77;;;21.30;99.90;;;;;;6046157;23;20201;-78
2022/06/03 18:54:23;;;;;;;15.45;12.95;;;21.30;99.90;;;;;;6047801;23;20023;-77
2022/06/03 18:56:52;;;;;;;12.33;11.07;;;21.30;99.90;;;;;;6046660;23;20016;-77
2022/06/03 18:59:44;;;;;;;14.30;11.55;;;21.30;99.90;;;;;;6046171;23;20003;-78
2022/06/03 19:02:16;;;;;;;12.32;9.60;;;21.20;99.90;;;;;;6022107;23;20039;-77
2022/06/03 19:04:56;;;;;;;11.63;9.75;;;21.20;99.90;;;;;;6046337;23;20016;-78
2022/06/03 19:07:45;;;;;;;14.05;11.15;;;21.20;99.90;;;;;;6059640;23;20219;-82
2022/06/03 19:10:43;;;;;;;12.63;10.85;;;21.10;99.90;;;;;;6139001;23;20054;-82
2022/06/03 19:13:12;;;;;;;;;;;21.00;99.90;;;;;;6143292;23;20032;-79
2022/06/03 19:15:48;;;;;;;;;;;20.90;99.90;;;;;;6162575;23;19900;-78
2022/06/03 19:18:52;;;;;;;13.32;11.68;;;20.80;99.90;;;;;;6136463;23;19962;-78
2022/06/03 19:21:42;;;;;;;13.35;11.85;;;20.70;99.90;;;;;;6098337;23;20013;-78
2022/06/03 19:24:32;;;;;;;12.65;10.93;;;20.50;99.90;;;;;;6165034;23;20173;-78
2022/06/03 19:26:58;;;;;;;12.13;10.82;;;20.40;99.90;;;;;;6134310;23;20002;-78
2022/06/03 19:29:31;;;;;;;13.13;11.17;;;20.30;99.90;;;;;;6132442;23;20021;-78
2022/06/03 19:32:05;;;;;;;16.17;12.18;;;20.20;99.90;;;;;;6164220;23;20476;-80
2022/06/03 19:34:34;;;;;;;13.32;11.95;;;20.20;99.90;;;;;;6162703;23;20044;-78
2022/06/03 19:37:17;;;;;;;11.43;10.00;;;20.10;99.90;;;;;;6164782;23;20028;-78
2022/06/03 19:39:47;;;;;;;14.23;11.00;;;20.00;99.90;;;;;;6165002;23;19997;-78
2022/06/03 19:42:36;;;;;;;14.85;12.13;;;20.10;99.90;;;;;;6165023;23;20006;-78
2022/06/03 19:45:17;;;;;;;13.48;12.07;;;20.10;99.90;;;;;;6169917;23;20104;-79
2022/06/03 19:48:00;;;;;;;14.55;11.43;;;20.00;99.90;;;;;;6140123;23;20009;-79
2022/06/03 19:53:42;;;;;;;14.02;12.52;;;19.90;99.90;;;;;;6164168;23;20025;-78
2022/06/03 19:56:25;;;;;;;13.82;12.25;;;19.90;99.90;;;;;;6164201;23;20243;-78
2022/06/03 19:58:56;;;;;;;14.30;10.45;;;19.80;99.90;;;;;;6138765;23;20006;-78
2022/06/03 20:01:38;;;;;;;12.32;10.80;;;19.60;99.90;;;;;;6163133;23;20072;-78
2022/06/03 20:04:20;;;;;;;12.88;10.98;;;19.60;99.90;;;;;;6164627;23;20032;-77
2022/06/03 20:06:54;;;;;;;13.30;11.10;;;19.50;99.90;;;;;;6164739;23;20002;-78
2022/06/03 20:09:39;;;;;;;11.70;10.10;;;19.50;99.90;;;;;;6162816;23;20005;-79
2022/06/03 20:15:06;;;;;;;12.45;10.95;;;19.40;99.90;;;;;;6163652;23;20310;-79
2022/06/03 20:17:36;;;;;;;13.90;10.93;;;19.50;99.90;;;;;;6113676;23;20278;-78
2022/06/03 20:20:04;;;;;;;11.90;10.68;;;19.50;99.90;;;;;;6138713;23;20056;-78
2022/06/03 20:22:36;;;;;;;16.10;12.20;;;19.40;99.90;;;;;;6163892;23;20239;-78
2022/06/03 20:25:34;;;;;;;13.77;12.13;;;19.50;99.90;;;;;;6165284;23;20326;-78
2022/06/03 20:28:21;;;;;;;12.13;10.68;;;19.40;99.90;;;;;;6139540;23;20037;-79
2022/06/03 20:30:52;;;;;;;14.83;11.60;;;19.40;99.90;;;;;;6145705;23;20195;-78
2022/06/03 20:33:21;;;;;;;15.38;11.68;;;19.50;99.90;;;;;;6167748;23;20009;-79